Time,TemperatureF,DewpointF,PressureIn,WindDirection,WindDirectionDegrees,WindSpeedMPH,WindSpeedGustMPH,Humidity,HourlyPrecipIn,Conditions,Clouds,dailyrainin,SoftwareType,DateUTC
2013-05-08 00:10:00,58.0,57.0,30.14,SSW,210,4.0,11.0,95,0.00,,,0.00,weatherlink.com 1.10,2013-05-08 04:10:00,
2013-05-08 00:25:00,57.8,56.0,30.14,SSE,165,5.0,8.0,95,0.00,,,0.00,weatherlink.com 1.10,2013-05-08 04:25:00,
2013-05-08 00:40:00,57.7,56.0,30.14,SSE,167,4.0,9.0,95,0.00,,,0.00,weatherlink.com 1.10,2013-05-08 04:40:00,
2013-05-08 00:55:00,57.4,56.0,30.13,South,177,3.0,7.0,95,0.00,,,0.00,weatherlink.com 1.10,2013-05-08 04:55:00,
2013-05-08 01:10:00,57.6,57.0,30.13,South,185,4.0,7.0,96,0.00,,,0.00,weatherlink.com 1.10,2013-05-08 05:10:00,
2013-05-08 01:25:00,57.5,56.0,30.12,SSW,194,5.0,7.0,96,0.00,,,0.00,weatherlink.com 1.10,2013-05-08 05:25:00,
2013-05-08 01:40:00,57.3,56.0,30.12,South,179,5.0,9.0,96,0.00,,,0.00,weatherlink.com 1.10,2013-05-08 05:40:00,
2013-05-08 01:55:00,57.5,56.0,30.12,SSE,156,3.0,10.0,96,0.00,,,0.00,weatherlink.com 1.10,2013-05-08 05:55:00,
2013-05-08 02:10:00,57.4,56.0,30.11,SSE,148,6.0,9.0,96,0.00,,,0.00,weatherlink.com 1.10,2013-05-08 06:10:00,
2013-05-08 02:25:00,57.4,56.0,30.11,SE,140,2.0,8.0,96,0.00,,,0.00,weatherlink.com 1.10,2013-05-08 06:25:00,
2013-05-08 02:40:00,57.3,56.0,30.11,SSE,162,5.0,11.0,96,0.00,,,0.00,weatherlink.com 1.10,2013-05-08 06:40:00,
2013-05-08 02:55:00,57.2,56.0,30.10,SSE,153,6.0,8.0,97,0.00,,,0.00,weatherlink.com 1.10,2013-05-08 06:55:00,
2013-05-08 03:10:00,57.8,57.0,30.10,SE,146,5.0,9.0,97,0.00,,,0.00,weatherlink.com 1.10,2013-05-08 07:10:00,
2013-05-08 03:25:00,58.1,57.0,30.10,SE,142,6.0,9.0,97,0.00,,,0.00,weatherlink.com 1.10,2013-05-08 07:25:00,
2013-05-08 03:40:00,57.8,57.0,30.10,SE,143,6.0,9.0,97,0.00,,,0.00,weatherlink.com 1.10,2013-05-08 07:40:00,
2013-05-08 03:56:00,57.8,57.0,30.10,South,183,6.0,8.0,97,0.00,,,0.00,weatherlink.com 1.10,2013-05-08 07:56:00,
2013-05-08 04:11:00,57.8,57.0,30.10,SSE,162,5.0,8.0,97,0.00,,,0.00,weatherlink.com 1.10,2013-05-08 08:11:00,
2013-05-08 04:26:00,57.7,57.0,30.10,SSE,148,4.0,8.0,97,0.00,,,0.00,weatherlink.com 1.10,2013-05-08 08:26:00,
2013-05-08 04:41:00,58.0,57.0,30.10,SSE,163,6.0,8.0,97,0.00,,,0.00,weatherlink.com 1.10,2013-05-08 08:41:00,
2013-05-08 04:56:00,57.9,57.0,30.10,SSW,205,5.0,8.0,97,0.00,,,0.00,weatherlink.com 1.10,2013-05-08 08:56:00,
2013-05-08 05:11:00,57.2,56.0,30.11,SSW,194,6.0,10.0,97,0.00,,,0.00,weatherlink.com 1.10,2013-05-08 09:11:00,
2013-05-08 05:26:00,56.9,56.0,30.11,SSE,155,4.0,9.0,97,0.00,,,0.00,weatherlink.com 1.10,2013-05-08 09:26:00,
2013-05-08 05:41:00,56.9,56.0,30.12,SSW,194,6.0,9.0,98,0.00,,,0.00,weatherlink.com 1.10,2013-05-08 09:41:00,
2013-05-08 05:56:00,57.4,57.0,30.12,SSE,150,5.0,8.0,98,0.00,,,0.00,weatherlink.com 1.10,2013-05-08 09:56:00,
2013-05-08 06:11:00,58.2,58.0,30.12,South,169,2.0,8.0,98,0.00,,,0.00,weatherlink.com 1.10,2013-05-08 10:11:00,
2013-05-08 06:26:00,58.8,58.0,30.12,SE,141,2.0,5.0,97,0.00,,,0.00,weatherlink.com 1.10,2013-05-08 10:26:00,
2013-05-08 06:41:00,59.1,58.0,30.12,SE,141,2.0,6.0,97,0.00,,,0.00,weatherlink.com 1.10,2013-05-08 10:41:00,
2013-05-08 06:56:00,61.4,61.0,30.13,SE,134,4.0,8.0,97,0.00,,,0.00,weatherlink.com 1.10,2013-05-08 10:56:00,
2013-05-08 07:11:00,61.5,60.0,30.13,South,177,5.0,13.0,96,0.00,,,0.00,weatherlink.com 1.10,2013-05-08 11:11:00,
2013-05-08 07:26:00,61.9,61.0,30.14,South,173,6.0,12.0,95,0.00,,,0.00,weatherlink.com 1.10,2013-05-08 11:26:00,
2013-05-08 07:41:00,62.1,60.0,30.13,SSE,147,10.0,13.0,93,0.00,,,0.00,weatherlink.com 1.10,2013-05-08 11:41:00,
2013-05-08 07:56:00,62.5,61.0,30.13,ESE,123,9.0,14.0,93,0.00,,,0.00,weatherlink.com 1.10,2013-05-08 11:56:00,
2013-05-08 08:11:00,63.8,62.0,30.13,SSE,150,6.0,13.0,94,0.00,,,0.00,weatherlink.com 1.10,2013-05-08 12:11:00,
2013-05-08 08:26:00,64.4,62.0,30.13,SE,136,8.0,14.0,91,0.00,,,0.00,weatherlink.com 1.10,2013-05-08 12:26:00,
2013-05-08 08:41:00,64.2,61.0,30.13,SE,140,11.0,12.0,90,0.00,,,0.00,weatherlink.com 1.10,2013-05-08 12:41:00,
2013-05-08 08:56:00,64.4,62.0,30.14,SE,129,9.0,17.0,90,0.00,,,0.00,weatherlink.com 1.10,2013-05-08 12:56:00,
2013-05-08 09:11:00,64.7,62.0,30.14,SSE,151,8.0,15.0,90,0.00,,,0.00,weatherlink.com 1.10,2013-05-08 13:11:00,
2013-05-08 09:26:00,65.9,63.0,30.15,South,170,12.0,20.0,90,0.00,,,0.00,weatherlink.com 1.10,2013-05-08 13:26:00,
2013-05-08 09:41:00,66.1,63.0,30.16,SE,128,15.0,18.0,88,0.00,,,0.00,weatherlink.com 1.10,2013-05-08 13:41:00,
2013-05-08 09:56:00,65.9,62.0,30.15,SE,136,12.0,17.0,88,0.00,,,0.00,weatherlink.com 1.10,2013-05-08 13:56:00,
2013-05-08 10:11:00,65.6,62.0,30.16,SE,141,13.0,18.0,89,0.00,,,0.00,weatherlink.com 1.10,2013-05-08 14:11:00,
2013-05-08 10:26:00,67.5,64.0,30.16,SSE,162,11.0,22.0,87,0.00,,,0.00,weatherlink.com 1.10,2013-05-08 14:26:00,
2013-05-08 10:41:00,68.5,64.0,30.15,ESE,119,18.0,20.0,85,0.00,,,0.00,weatherlink.com 1.10,2013-05-08 14:41:00,
2013-05-08 10:56:00,68.8,64.0,30.15,SE,134,15.0,19.0,84,0.00,,,0.00,weatherlink.com 1.10,2013-05-08 14:56:00,
2013-05-08 11:11:00,66.7,62.0,30.14,SE,129,12.0,18.0,86,0.00,,,0.00,weatherlink.com 1.10,2013-05-08 15:11:00,
2013-05-08 11:26:00,66.2,63.0,30.14,SE,139,13.0,16.0,88,0.00,,,0.00,weatherlink.com 1.10,2013-05-08 15:26:00,
2013-05-08 11:41:00,65.8,62.0,30.14,SE,139,10.0,15.0,87,0.00,,,0.00,weatherlink.com 1.10,2013-05-08 15:41:00,
2013-05-08 11:56:00,65.6,62.0,30.14,SSE,149,6.0,16.0,87,0.00,,,0.00,weatherlink.com 1.10,2013-05-08 15:56:00,
2013-05-08 12:11:00,65.7,62.0,30.14,ESE,122,14.0,18.0,87,0.00,,,0.00,weatherlink.com 1.10,2013-05-08 16:11:00,
2013-05-08 12:26:00,65.6,62.0,30.14,SE,131,12.0,17.0,88,0.00,,,0.00,weatherlink.com 1.10,2013-05-08 16:26:00,
2013-05-08 12:41:00,65.9,62.0,30.13,SE,146,10.0,18.0,87,0.00,,,0.00,weatherlink.com 1.10,2013-05-08 16:41:00,
2013-05-08 12:56:00,65.9,62.0,30.13,SE,133,13.0,20.0,87,0.00,,,0.00,weatherlink.com 1.10,2013-05-08 16:56:00,
2013-05-08 13:11:00,64.8,62.0,30.12,ESE,110,16.0,19.0,89,0.00,,,0.00,weatherlink.com 1.10,2013-05-08 17:11:00,
2013-05-08 13:26:00,64.5,61.0,30.12,ESE,111,14.0,18.0,89,0.00,,,0.00,weatherlink.com 1.10,2013-05-08 17:26:00,
2013-05-08 13:41:00,64.3,61.0,30.12,SE,138,10.0,17.0,88,0.00,,,0.00,weatherlink.com 1.10,2013-05-08 17:41:00,
2013-05-08 13:56:00,64.2,61.0,30.12,ESE,107,12.0,15.0,89,0.00,,,0.00,weatherlink.com 1.10,2013-05-08 17:56:00,
2013-05-08 14:11:00,64.2,61.0,30.11,SSE,147,15.0,21.0,89,0.00,,,0.00,weatherlink.com 1.10,2013-05-08 18:11:00,
2013-05-08 14:26:00,64.0,61.0,30.10,ESE,112,14.0,20.0,90,0.00,,,0.00,weatherlink.com 1.10,2013-05-08 18:26:00,
2013-05-08 14:41:00,64.4,61.0,30.09,SE,134,13.0,20.0,89,0.00,,,0.00,weatherlink.com 1.10,2013-05-08 18:41:00,
2013-05-08 14:57:00,63.9,61.0,30.09,SE,139,15.0,18.0,89,0.00,,,0.00,weatherlink.com 1.10,2013-05-08 18:57:00,
2013-05-08 15:12:00,63.4,60.0,30.08,SE,143,15.0,20.0,89,0.00,,,0.00,weatherlink.com 1.10,2013-05-08 19:12:00,
2013-05-08 15:27:00,62.7,60.0,30.08,ESE,121,14.0,20.0,89,0.00,,,0.00,weatherlink.com 1.10,2013-05-08 19:27:00,
2013-05-08 15:42:00,62.1,59.0,30.09,SSE,148,13.0,22.0,90,0.00,,,0.00,weatherlink.com 1.10,2013-05-08 19:42:00,
2013-05-08 15:57:00,62.6,60.0,30.09,South,174,11.0,18.0,91,0.00,,,0.00,weatherlink.com 1.10,2013-05-08 19:57:00,
2013-05-08 16:12:00,62.1,60.0,30.08,SSE,149,11.0,21.0,91,0.00,,,0.00,weatherlink.com 1.10,2013-05-08 20:12:00,
2013-05-08 16:27:00,61.4,59.0,30.08,SE,139,10.0,16.0,91,0.00,,,0.00,weatherlink.com 1.10,2013-05-08 20:27:00,
2013-05-08 16:42:00,61.4,59.0,30.07,SE,131,8.0,19.0,91,0.00,,,0.00,weatherlink.com 1.10,2013-05-08 20:42:00,
2013-05-08 16:57:00,60.9,58.0,30.07,South,181,7.0,16.0,91,0.00,,,0.00,weatherlink.com 1.10,2013-05-08 20:57:00,
2013-05-08 17:12:00,60.7,58.0,30.06,ESE,121,10.0,15.0,92,0.00,,,0.00,weatherlink.com 1.10,2013-05-08 21:12:00,
2013-05-08 17:27:00,61.1,59.0,30.06,SE,127,9.0,12.0,92,0.00,,,0.00,weatherlink.com 1.10,2013-05-08 21:27:00,
2013-05-08 17:42:00,62.0,59.0,30.05,ESE,121,11.0,14.0,91,0.00,,,0.00,weatherlink.com 1.10,2013-05-08 21:42:00,
2013-05-08 17:57:00,61.9,59.0,30.05,ESE,113,10.0,14.0,90,0.00,,,0.00,weatherlink.com 1.10,2013-05-08 21:57:00,
2013-05-08 18:12:00,61.9,59.0,30.05,SE,133,13.0,15.0,90,0.00,,,0.00,weatherlink.com 1.10,2013-05-08 22:12:00,
2013-05-08 18:27:00,59.4,57.0,30.05,East,85,5.0,9.0,91,0.00,,,0.00,weatherlink.com 1.10,2013-05-08 22:27:00,
2013-05-08 18:42:00,59.4,57.0,30.05,SE,134,5.0,11.0,92,0.00,,,0.00,weatherlink.com 1.10,2013-05-08 22:42:00,
2013-05-08 18:57:00,59.3,57.0,30.04,ESE,104,6.0,8.0,93,0.00,,,0.00,weatherlink.com 1.10,2013-05-08 22:57:00,
2013-05-08 19:12:00,59.0,57.0,30.04,East,100,5.0,10.0,93,0.00,,,0.00,weatherlink.com 1.10,2013-05-08 23:12:00,
2013-05-08 19:27:00,59.3,57.0,30.04,SE,131,8.0,10.0,93,0.00,,,0.00,weatherlink.com 1.10,2013-05-08 23:27:00,
2013-05-08 19:42:00,60.0,58.0,30.03,SE,129,10.0,13.0,93,0.00,,,0.00,weatherlink.com 1.10,2013-05-08 23:42:00,
2013-05-08 19:57:00,59.9,58.0,30.04,SE,134,11.0,15.0,93,0.00,,,0.00,weatherlink.com 1.10,2013-05-08 23:57:00,
2013-05-08 20:12:00,59.2,57.0,30.03,SSE,152,7.0,13.0,93,0.00,,,0.00,weatherlink.com 1.10,2013-05-09 00:12:00,
2013-05-08 20:27:00,58.3,56.0,30.03,SSE,150,7.0,11.0,93,0.00,,,0.00,weatherlink.com 1.10,2013-05-09 00:27:00,
2013-05-08 20:42:00,57.6,56.0,30.03,South,173,6.0,13.0,93,0.00,,,0.00,weatherlink.com 1.10,2013-05-09 00:42:00,
2013-05-08 20:57:00,57.5,56.0,30.04,SE,146,7.0,13.0,93,0.00,,,0.01,weatherlink.com 1.10,2013-05-09 00:57:00,
2013-05-08 21:12:00,57.3,56.0,30.04,South,176,3.0,10.0,94,0.01,,,0.01,weatherlink.com 1.10,2013-05-09 01:12:00,
2013-05-08 21:27:00,57.4,56.0,30.03,SW,225,7.0,11.0,95,0.02,,,0.02,weatherlink.com 1.10,2013-05-09 01:27:00,
2013-05-08 21:42:00,58.4,57.0,30.03,ESE,111,3.0,14.0,94,0.03,,,0.03,weatherlink.com 1.10,2013-05-09 01:42:00,
2013-05-08 21:57:00,57.4,56.0,30.03,South,180,6.0,9.0,94,0.03,,,0.04,weatherlink.com 1.10,2013-05-09 01:57:00,
2013-05-08 22:12:00,56.5,55.0,30.03,South,190,2.0,10.0,95,0.03,,,0.04,weatherlink.com 1.10,2013-05-09 02:12:00,
2013-05-08 22:27:00,55.9,55.0,30.03,SSE,152,6.0,12.0,95,0.02,,,0.04,weatherlink.com 1.10,2013-05-09 02:27:00,
2013-05-08 22:42:00,55.7,54.0,30.03,South,174,11.0,11.0,95,0.01,,,0.04,weatherlink.com 1.10,2013-05-09 02:42:00,
2013-05-08 22:57:00,55.6,54.0,30.02,SSE,158,3.0,8.0,95,0.00,,,0.04,weatherlink.com 1.10,2013-05-09 02:57:00,
2013-05-08 23:13:00,55.0,54.0,30.02,SSE,150,3.0,9.0,95,0.00,,,0.04,weatherlink.com 1.10,2013-05-09 03:13:00,
2013-05-08 23:28:00,55.1,54.0,30.02,SSE,155,7.0,10.0,95,0.00,,,0.04,weatherlink.com 1.10,2013-05-09 03:28:00,
2013-05-08 23:43:00,55.1,54.0,30.01,SE,140,1.0,8.0,95,0.00,,,0.04,weatherlink.com 1.10,2013-05-09 03:43:00,
2013-05-08 23:58:00,55.3,54.0,30.01,SE,143,2.0,8.0,96,0.00,,,0.04,weatherlink.com 1.10,2013-05-09 03:58:00,